Nanga Mai — OR9905 — position and weather

sailwx.info

Track history (hours):
 
Tides and Currents Weather Stations Pressure Air Temp Water Temp Dewpoint Dewpoint Depression Visibility Wind Speed Wind Dir Waves Ship Positions

Nanga Mai

Last reported at 2017-Sep-15 08:45 UTC. Time now 2017-Sep-23 16:41 UTC.
Position N 51°19' E 002°57'.
Warning: this ship's position is 8 days out of date.

Length 13 m.

Type: Sailing vessel. MMSI: 205990510.

Date/timePositionNaut miles runAvg speedWind from/ knotsBaromVisibWave heightAir tempDewpointWater temp
2017-Sep-15 08:45N 51°19' E 002°57'2 8.1
2017-Sep-15 08:29N 51°18' E 002°55'4 8.3
2017-Sep-15 08:00N 51°15' E 002°50'4 7.9
2017-Sep-15 07:30N 51°12' E 002°46'3 6.2
2017-Sep-15 07:00N 51°09' E 002°43'  
2017-Sep-12 16:43N 51°08' E 002°44'1 3.4
2017-Sep-12 16:29N 51°09' E 002°44'4 7.3
2017-Sep-12 15:59N 51°10' E 002°38'4 8.6
2017-Sep-12 15:30N 51°08' E 002°32'4 7.8
2017-Sep-12 15:00N 51°05' E 002°28'11 7.4
2017-Sep-12 13:33N 51°03' E 002°11'0 8.0
2017-Sep-12 13:29N 51°03' E 002°10'4 7.4
2017-Sep-12 13:00N 51°03' E 002°05'  
2017-Sep-09 04:31N 49°26' E 000°07'0 6.6
2017-Sep-09 04:29N 49°26' E 000°07'  
Track history (hours):
 
Tides and Currents Weather Stations Pressure Air Temp Water Temp Dewpoint Dewpoint Depression Visibility Wind Speed Wind Dir Waves Ship Positions

Nanga Mai

Last reported at 2017-Sep-15 08:45 UTC. Time now 2017-Sep-23 16:41 UTC.
Position N 51°19' E 002°57'.
Warning: this ship's position is 8 days out of date.

Length 13 m.

Type: Sailing vessel. MMSI: 205990510.

Date/timePositionNaut miles runAvg speedWind from/ knotsBaromVisibWave heightAir tempDewpointWater temp
2017-Sep-15 08:45N 51°19' E 002°57'2 8.1
2017-Sep-15 08:29N 51°18' E 002°55'4 8.3
2017-Sep-15 08:00N 51°15' E 002°50'4 7.9
2017-Sep-15 07:30N 51°12' E 002°46'3 6.2
2017-Sep-15 07:00N 51°09' E 002°43'  
2017-Sep-12 16:43N 51°08' E 002°44'1 3.4
2017-Sep-12 16:29N 51°09' E 002°44'4 7.3
2017-Sep-12 15:59N 51°10' E 002°38'4 8.6
2017-Sep-12 15:30N 51°08' E 002°32'4 7.8
2017-Sep-12 15:00N 51°05' E 002°28'11 7.4
2017-Sep-12 13:33N 51°03' E 002°11'0 8.0
2017-Sep-12 13:29N 51°03' E 002°10'4 7.4
2017-Sep-12 13:00N 51°03' E 002°05'  
2017-Sep-09 04:31N 49°26' E 000°07'0 6.6
2017-Sep-09 04:29N 49°26' E 000°07'  

Dump ship's entire track history